FW0159 Weather Reports


Display with metric or nautical units.
time (UTC)temp
F
wind
direction
speed
MPH
gust
MPH
rain 1hr
in
rain 24hr
in
rain mn
in
humidity
%
barometer
mb
20190718050144 67 41 2.0 9.0 0.00 0.14 0.00 92 1014.5
20190718044537 67 65 4.0 13.0 0.00 0.14 0.00 93 1014.6
20190718043111 67 360 5.0 11.0 0.00 0.14 0.00 94 1014.4
20190718041502 67 360 4.0 6.0 0.00 0.14 0.00 95 1014.5
20190718040145 67 32 2.0 5.0 0.00 0.14 0.00 95 1014.3
20190718034647 67 39 2.0 6.0 0.00 0.14 0.14 95 1014.2
20190718033055 68 9 2.0 4.0 0.00 0.14 0.14 94 1013.9
20190718031639 68 342 1.0 5.0 0.00 0.14 0.14 93 1013.7
20190718030014 69 26 5.0 10.0 0.00 0.14 0.14 93 1013.6
20190718024609 68 360 4.0 10.0 0.00 0.14 0.14 95 1013.5
20190718023233 68 360 2.0 5.0 0.00 0.14 0.14 96 1013.3
20190718021535 69 79 1.0 3.0 0.00 0.14 0.14 96 1013.3
20190718020116 69 33 3.0 8.0 0.00 0.14 0.14 96 1013.1
20190718014531 69 9 2.0 4.0 0.00 0.14 0.14 96 1013.1
20190718013112 69 56 0.0 0.0 0.00 0.14 0.14 96 1013.2
20190718010111 69 40 0.0 2.0 0.00 0.14 0.14 95 1012.7
20190718004625 70 39 1.0 6.0 0.00 0.14 0.14 94 1012.6
20190718003022 70 34 3.0 5.0 0.00 0.14 0.14 94 1012.3
20190718001616 70 360 2.0 6.0 0.00 0.14 0.14 94 1012.3
20190718000007 70 75 2.0 3.0 0.00 0.14 0.14 94 1012.1
20190717234550 70 25 3.0 6.0 0.02 0.14 0.14 93 1012.0
20190717233020 71 133 2.0 5.0 0.06 0.14 0.14 94 1011.8
20190717231609 72 257 0.0 7.0 0.06 0.14 0.14 92 1011.7
20190717230118 73 304 5.0 13.0 0.06 0.14 0.14 88 1011.7
20190717224612 75 246 8.0 14.0 0.03 0.11 0.11 83 1011.6
20190717223139 76 290 2.0 12.0 0.00 0.08 0.08 80 1011.5
20190717221530 76 165 8.0 14.0 0.00 0.08 0.08 79 1011.5
20190717220305 76 260 3.0 10.0 0.00 0.08 0.08 79 1011.3
20190717214527 76 271 4.0 11.0 0.00 0.08 0.08 81 1011.2
20190717213117 76 283 7.0 15.0 0.00 0.08 0.08 79 1011.3
20190717211520 75 320 4.0 9.0 0.00 0.08 0.08 83 1011.4
20190717210116 76 319 5.0 11.0 0.00 0.08 0.08 79 1011.1
20190717204518 76 305 4.0 9.0 0.00 0.08 0.08 79 1010.8
20190717203147 76 300 5.0 12.0 0.00 0.08 0.08 79 1010.9
20190717201509 76 310 5.0 14.0 0.00 0.08 0.08 80 1010.8
20190717200139 77 246 4.0 13.0 0.00 0.08 0.08 80 1010.9
20190717193054 76 360 11.0 17.0 0.00 0.08 0.08 78 1011.2
20190717190116 78 327 4.0 17.0 0.00 0.08 0.08 74 1011.5
20190717184644 79 360 13.0 21.0 0.00 0.08 0.08 73 1011.6
20190717183046 81 360 4.0 12.0 0.00 0.08 0.08 72 1011.6
20190717181640 80 205 5.0 12.0 0.00 0.08 0.08 79 1011.7
20190717180007 78 355 2.0 5.0 0.00 0.08 0.08 78 1011.7
20190717174528 76 274 2.0 8.0 0.00 0.08 0.08 85 1011.7
20190717173110 76 304 2.0 8.0 0.00 0.08 0.08 83 1011.7
20190717171553 76 360 5.0 8.0 0.00 0.08 0.08 82 1012.0
20190717170138 76 9 3.0 18.0 0.00 0.08 0.08 87 1011.9
20190717164518 74 301 3.0 8.0 0.00 0.08 0.08 89 1011.9
20190717163114 73 336 0.0 5.0 0.00 0.08 0.08 94 1012.0
20190717161639 72 360 4.0 10.0 0.00 0.08 0.08 93 1012.1
20190717160046 72 320 7.0 18.0 0.00 0.08 0.08 91 1012.1
20190717154701 72 360 2.0 19.0 0.00 0.08 0.08 92 1012.3
20190717153055 73 266 4.0 8.0 0.00 0.08 0.08 93 1012.4
20190717151714 72 307 3.0 8.0 0.00 0.08 0.08 96 1012.5
20190717150103 71 70 1.0 16.0 0.01 0.08 0.08 96 1012.4
20190717144617 71 360 3.0 11.0 0.01 0.08 0.08 96 1012.2
20190717143047 70 223 3.0 9.0 0.02 0.08 0.08 96 1012.2
20190717141502 70 245 3.0 7.0 0.02 0.08 0.08 96 1012.5
20190717140050 70 199 0.0 3.0 0.02 0.07 0.07 96 1012.4
20190717134502 69 147 2.0 7.0 0.03 0.07 0.07 96 1012.4
20190717133044 69 313 3.0 8.0 0.04 0.06 0.06 95 1012.5
20190717131521 69 51 0.0 1.0 0.05 0.06 0.06 95 1012.7
20190717130059 69 51 1.0 5.0 0.05 0.05 0.05 94 1012.6
20190717124523 68 328 3.0 6.0 0.04 0.04 0.04 93 1012.5
20190717123146 68 298 4.0 19.0 0.02 0.02 0.02 94 1012.4
20190717121539 66 326 2.0 8.0 0.01 0.01 0.01 96 1012.2
20190717120122 66 5 2.0 4.0 0.00 0.00 0.00 95 1012.3
20190717114515 66 320 0.0 2.0 0.00 0.00 0.00 94 1012.0
20190717113107 65 343 0.0 3.0 0.00 0.00 0.00 93 1011.8
20190717111524 65 84 0.0 3.0 0.00 0.00 0.00 93 1011.8
20190717110150 64 64 0.0 3.0 0.00 0.00 0.00 94 1011.8
20190717104518 65 138 1.0 4.0 0.00 0.00 0.00 94 1011.9
20190717103138 64 136 0.0 4.0 0.00 0.00 0.00 95 1011.8
20190717101543 64 134 0.0 4.0 0.00 0.00 0.00 95 1011.9
20190717100100 63 139 2.0 5.0 0.00 0.00 0.00 96 1012.1
20190717094536 62 142 3.0 4.0 0.00 0.00 0.00 95 1011.8
20190717093138 62 264 0.0 4.0 0.00 0.00 0.00 95 1011.9
20190717091513 63 288 0.0 3.0 0.00 0.00 0.00 96 1012.0
20190717090107 62 257 1.0 3.0 0.00 0.00 0.00 96 1012.3
20190717084502 62 343 1.0 3.0 0.00 0.00 0.00 95 1012.3
20190717083051 62 53 0.0 3.0 0.00 0.00 0.00 95 1012.3
20190717080100 62 346 1.0 6.0 0.00 0.00 0.00 95 1012.4
20190717074734 62 142 0.0 3.0 0.00 0.00 0.00 95 1012.5
20190717073137 62 144 0.0 3.0 0.00 0.00 0.00 94 1012.6
20190717071619 63 92 2.0 11.0 0.00 0.00 0.00 93 1012.5
20190717070054 63 227 0.0 2.0 0.00 0.00 0.00 95 1012.7
20190717064611 62 227 2.0 3.0 0.00 0.00 0.00 94 1012.9
20190717063012 63 232 2.0 4.0 0.00 0.00 0.00 93 1013.0
20190717061614 63 232 2.0 5.0 0.00 0.00 0.00 92 1012.9
20190717060127 64 211 0.0 5.0 0.00 0.00 0.00 92 1012.7
20190717054603 64 55 2.0 4.0 0.00 0.00 0.00 92 1012.9
20190717053114 64 107 0.0 2.0 0.00 0.00 0.00 91 1013.1
20190717051638 64 50 1.0 4.0 0.00 0.00 0.00 91 1013.2